sensor_id;sensor_type;location;lat;lon;timestamp;temperature;humidity
64561;DHT22;50960;46.838;16.838;2023-03-23T00:01:09;11.70;62.80
64561;DHT22;50960;46.838;16.838;2023-03-23T00:03:47;11.80;63.10
64561;DHT22;50960;46.838;16.838;2023-03-23T00:06:14;11.80;63.00
64561;DHT22;50960;46.838;16.838;2023-03-23T00:08:45;11.80;63.30
64561;DHT22;50960;46.838;16.838;2023-03-23T00:11:13;11.70;63.30
64561;DHT22;50960;46.838;16.838;2023-03-23T00:13:46;11.70;63.80
64561;DHT22;50960;46.838;16.838;2023-03-23T00:16:13;11.60;64.50
64561;DHT22;50960;46.838;16.838;2023-03-23T00:18:50;11.50;64.60
64561;DHT22;50960;46.838;16.838;2023-03-23T00:21:21;11.50;64.90
64561;DHT22;50960;46.838;16.838;2023-03-23T00:24:00;11.50;64.60
64561;DHT22;50960;46.838;16.838;2023-03-23T00:26:27;11.50;64.70
64561;DHT22;50960;46.838;16.838;2023-03-23T00:28:55;11.60;64.10
64561;DHT22;50960;46.838;16.838;2023-03-23T00:31:22;11.60;64.20
64561;DHT22;50960;46.838;16.838;2023-03-23T00:33:48;11.50;64.30
64561;DHT22;50960;46.838;16.838;2023-03-23T00:36:15;11.50;64.50
64561;DHT22;50960;46.838;16.838;2023-03-23T00:38:43;11.50;64.90
64561;DHT22;50960;46.838;16.838;2023-03-23T00:41:10;11.50;65.00
64561;DHT22;50960;46.838;16.838;2023-03-23T00:43:37;11.40;64.80
64561;DHT22;50960;46.838;16.838;2023-03-23T00:46:05;11.40;65.20
64561;DHT22;50960;46.838;16.838;2023-03-23T00:48:38;11.40;65.30
64561;DHT22;50960;46.838;16.838;2023-03-23T00:51:11;11.40;65.30
64561;DHT22;50960;46.838;16.838;2023-03-23T00:53:39;11.40;65.60
64561;DHT22;50960;46.838;16.838;2023-03-23T00:56:07;11.40;65.20
64561;DHT22;50960;46.838;16.838;2023-03-23T00:58:34;11.40;65.20
64561;DHT22;50960;46.838;16.838;2023-03-23T01:01:01;11.40;65.30
64561;DHT22;50960;46.838;16.838;2023-03-23T01:03:27;11.40;65.60
64561;DHT22;50960;46.838;16.838;2023-03-23T01:05:55;11.30;65.60
64561;DHT22;50960;46.838;16.838;2023-03-23T01:08:24;11.30;65.70
64561;DHT22;50960;46.838;16.838;2023-03-23T01:10:51;11.30;66.40
64561;DHT22;50960;46.838;16.838;2023-03-23T01:13:17;11.20;66.30
64561;DHT22;50960;46.838;16.838;2023-03-23T01:15:43;11.10;66.50
64561;DHT22;50960;46.838;16.838;2023-03-23T01:18:10;11.10;67.10
64561;DHT22;50960;46.838;16.838;2023-03-23T01:20:37;11.00;67.70
64561;DHT22;50960;46.838;16.838;2023-03-23T01:23:03;10.90;67.90
64561;DHT22;50960;46.838;16.838;2023-03-23T01:25:34;10.90;68.30
64561;DHT22;50960;46.838;16.838;2023-03-23T01:28:01;10.90;68.30
64561;DHT22;50960;46.838;16.838;2023-03-23T01:30:27;10.90;68.30
64561;DHT22;50960;46.838;16.838;2023-03-23T01:32:54;10.90;68.40
64561;DHT22;50960;46.838;16.838;2023-03-23T01:35:22;10.80;68.40
64561;DHT22;50960;46.838;16.838;2023-03-23T01:37:48;10.80;68.60
64561;DHT22;50960;46.838;16.838;2023-03-23T01:40:15;10.90;68.40
64561;DHT22;50960;46.838;16.838;2023-03-23T01:42:42;10.80;68.40
64561;DHT22;50960;46.838;16.838;2023-03-23T01:45:24;10.80;68.40
64561;DHT22;50960;46.838;16.838;2023-03-23T01:48:20;10.70;68.80
64561;DHT22;50960;46.838;16.838;2023-03-23T01:50:58;10.70;69.00
64561;DHT22;50960;46.838;16.838;2023-03-23T01:53:30;10.70;69.50
64561;DHT22;50960;46.838;16.838;2023-03-23T01:56:00;10.60;70.10
64561;DHT22;50960;46.838;16.838;2023-03-23T01:58:30;10.60;69.70
64561;DHT22;50960;46.838;16.838;2023-03-23T02:01:00;10.60;69.70
64561;DHT22;50960;46.838;16.838;2023-03-23T02:03:28;10.60;69.90
64561;DHT22;50960;46.838;16.838;2023-03-23T02:05:57;10.50;69.70
64561;DHT22;50960;46.838;16.838;2023-03-23T02:08:28;10.50;69.60
64561;DHT22;50960;46.838;16.838;2023-03-23T02:10:55;10.50;70.00
64561;DHT22;50960;46.838;16.838;2023-03-23T02:13:22;10.40;70.10
64561;DHT22;50960;46.838;16.838;2023-03-23T02:16:08;10.50;70.30
64561;DHT22;50960;46.838;16.838;2023-03-23T02:27:26;10.50;70.50
64561;DHT22;50960;46.838;16.838;2023-03-23T02:35:34;10.30;70.80
64561;DHT22;50960;46.838;16.838;2023-03-23T02:38:06;10.20;71.20
64561;DHT22;50960;46.838;16.838;2023-03-23T02:40:39;10.20;71.40
64561;DHT22;50960;46.838;16.838;2023-03-23T02:43:10;10.30;71.70
64561;DHT22;50960;46.838;16.838;2023-03-23T02:45:38;10.30;71.50
64561;DHT22;50960;46.838;16.838;2023-03-23T02:48:07;10.30;71.20
64561;DHT22;50960;46.838;16.838;2023-03-23T02:50:35;10.30;71.90
64561;DHT22;50960;46.838;16.838;2023-03-23T02:53:05;10.20;72.10
64561;DHT22;50960;46.838;16.838;2023-03-23T02:55:34;10.10;72.30
64561;DHT22;50960;46.838;16.838;2023-03-23T02:58:01;10.00;72.50
64561;DHT22;50960;46.838;16.838;2023-03-23T03:00:28;9.90;73.10
64561;DHT22;50960;46.838;16.838;2023-03-23T03:02:56;9.80;72.90
64561;DHT22;50960;46.838;16.838;2023-03-23T03:13:38;9.70;73.20
64561;DHT22;50960;46.838;16.838;2023-03-23T03:19:00;9.70;73.80
64561;DHT22;50960;46.838;16.838;2023-03-23T03:21:30;9.60;73.40
64561;DHT22;50960;46.838;16.838;2023-03-23T03:23:59;9.50;73.70
64561;DHT22;50960;46.838;16.838;2023-03-23T03:26:28;9.40;73.70
64561;DHT22;50960;46.838;16.838;2023-03-23T03:28:55;9.40;74.50
64561;DHT22;50960;46.838;16.838;2023-03-23T03:31:30;9.30;75.80
64561;DHT22;50960;46.838;16.838;2023-03-23T03:33:58;9.20;77.60
64561;DHT22;50960;46.838;16.838;2023-03-23T03:36:33;9.10;76.90
64561;DHT22;50960;46.838;16.838;2023-03-23T03:39:05;9.30;76.70
64561;DHT22;50960;46.838;16.838;2023-03-23T03:41:35;9.50;75.90
64561;DHT22;50960;46.838;16.838;2023-03-23T03:44:02;9.70;75.30
64561;DHT22;50960;46.838;16.838;2023-03-23T03:46:29;9.80;75.00
64561;DHT22;50960;46.838;16.838;2023-03-23T03:48:57;9.80;74.80
64561;DHT22;50960;46.838;16.838;2023-03-23T03:51:25;9.50;74.80
64561;DHT22;50960;46.838;16.838;2023-03-23T03:53:52;9.40;75.50
64561;DHT22;50960;46.838;16.838;2023-03-23T03:56:20;9.20;77.30
64561;DHT22;50960;46.838;16.838;2023-03-23T03:58:49;9.00;78.30
64561;DHT22;50960;46.838;16.838;2023-03-23T04:01:17;8.90;78.70
64561;DHT22;50960;46.838;16.838;2023-03-23T04:03:44;9.00;78.70
64561;DHT22;50960;46.838;16.838;2023-03-23T04:06:11;9.00;79.10
64561;DHT22;50960;46.838;16.838;2023-03-23T04:08:38;8.90;78.50
64561;DHT22;50960;46.838;16.838;2023-03-23T04:11:08;8.80;79.40
64561;DHT22;50960;46.838;16.838;2023-03-23T04:13:34;8.80;79.60
64561;DHT22;50960;46.838;16.838;2023-03-23T04:16:01;8.80;78.90
64561;DHT22;50960;46.838;16.838;2023-03-23T04:18:28;8.90;79.10
64561;DHT22;50960;46.838;16.838;2023-03-23T04:20:55;8.80;79.50
64561;DHT22;50960;46.838;16.838;2023-03-23T04:23:28;8.80;79.60
64561;DHT22;50960;46.838;16.838;2023-03-23T04:25:56;8.80;79.90
64561;DHT22;50960;46.838;16.838;2023-03-23T04:28:24;8.80;79.90
64561;DHT22;50960;46.838;16.838;2023-03-23T04:30:52;8.80;80.10
64561;DHT22;50960;46.838;16.838;2023-03-23T04:33:25;8.70;80.50
64561;DHT22;50960;46.838;16.838;2023-03-23T04:35:54;8.50;81.50
64561;DHT22;50960;46.838;16.838;2023-03-23T04:38:23;8.30;81.90
64561;DHT22;50960;46.838;16.838;2023-03-23T04:40:52;8.30;82.90
64561;DHT22;50960;46.838;16.838;2023-03-23T04:43:21;8.10;83.30
64561;DHT22;50960;46.838;16.838;2023-03-23T04:45:58;8.10;83.50
64561;DHT22;50960;46.838;16.838;2023-03-23T04:48:27;8.00;83.50
64561;DHT22;50960;46.838;16.838;2023-03-23T04:50:54;7.90;84.00
64561;DHT22;50960;46.838;16.838;2023-03-23T04:53:20;8.00;83.50
64561;DHT22;50960;46.838;16.838;2023-03-23T04:55:48;7.90;83.40
64561;DHT22;50960;46.838;16.838;2023-03-23T04:58:16;8.00;82.20
64561;DHT22;50960;46.838;16.838;2023-03-23T05:00:43;8.10;82.20
64561;DHT22;50960;46.838;16.838;2023-03-23T05:03:10;8.00;82.40
64561;DHT22;50960;46.838;16.838;2023-03-23T05:05:37;7.90;82.70
64561;DHT22;50960;46.838;16.838;2023-03-23T05:08:06;7.80;83.90
64561;DHT22;50960;46.838;16.838;2023-03-23T05:10:32;7.80;83.20
64561;DHT22;50960;46.838;16.838;2023-03-23T05:12:58;7.80;83.40
64561;DHT22;50960;46.838;16.838;2023-03-23T05:15:25;7.80;83.50
64561;DHT22;50960;46.838;16.838;2023-03-23T05:17:52;7.80;83.70
64561;DHT22;50960;46.838;16.838;2023-03-23T05:20:18;7.80;83.10
64561;DHT22;50960;46.838;16.838;2023-03-23T05:22:46;8.00;82.50
64561;DHT22;50960;46.838;16.838;2023-03-23T05:25:17;8.10;81.70
64561;DHT22;50960;46.838;16.838;2023-03-23T05:27:46;8.20;81.30
64561;DHT22;50960;46.838;16.838;2023-03-23T05:30:19;8.20;80.70
64561;DHT22;50960;46.838;16.838;2023-03-23T05:32:48;8.30;80.40
64561;DHT22;50960;46.838;16.838;2023-03-23T05:35:18;8.40;80.00
64561;DHT22;50960;46.838;16.838;2023-03-23T05:37:45;8.40;79.60
64561;DHT22;50960;46.838;16.838;2023-03-23T05:40:12;8.50;79.10
64561;DHT22;50960;46.838;16.838;2023-03-23T05:42:40;8.60;78.60
64561;DHT22;50960;46.838;16.838;2023-03-23T05:45:10;8.70;78.50
64561;DHT22;50960;46.838;16.838;2023-03-23T05:47:40;8.80;78.00
64561;DHT22;50960;46.838;16.838;2023-03-23T05:50:08;8.90;77.50
64561;DHT22;50960;46.838;16.838;2023-03-23T05:52:39;9.00;77.00
64561;DHT22;50960;46.838;16.838;2023-03-23T05:55:06;9.10;77.00
64561;DHT22;50960;46.838;16.838;2023-03-23T05:57:33;9.20;76.60
64561;DHT22;50960;46.838;16.838;2023-03-23T06:00:00;9.50;78.60
64561;DHT22;50960;46.838;16.838;2023-03-23T06:02:31;9.70;77.10
64561;DHT22;50960;46.838;16.838;2023-03-23T06:04:57;9.90;76.90
64561;DHT22;50960;46.838;16.838;2023-03-23T06:07:25;10.00;76.30
64561;DHT22;50960;46.838;16.838;2023-03-23T06:09:54;10.40;75.60
64561;DHT22;50960;46.838;16.838;2023-03-23T06:12:20;10.60;78.60
64561;DHT22;50960;46.838;16.838;2023-03-23T06:14:48;10.70;73.80
64561;DHT22;50960;46.838;16.838;2023-03-23T06:17:15;10.90;73.60
64561;DHT22;50960;46.838;16.838;2023-03-23T06:19:43;10.90;74.10
64561;DHT22;50960;46.838;16.838;2023-03-23T06:22:17;11.20;73.40
64561;DHT22;50960;46.838;16.838;2023-03-23T06:24:44;11.40;72.20
64561;DHT22;50960;46.838;16.838;2023-03-23T06:27:10;11.50;70.00
64561;DHT22;50960;46.838;16.838;2023-03-23T06:29:37;11.70;69.40
64561;DHT22;50960;46.838;16.838;2023-03-23T06:32:04;11.80;68.60
64561;DHT22;50960;46.838;16.838;2023-03-23T06:34:31;11.90;68.10
64561;DHT22;50960;46.838;16.838;2023-03-23T06:36:58;12.10;67.50
64561;DHT22;50960;46.838;16.838;2023-03-23T06:39:24;12.20;65.60
64561;DHT22;50960;46.838;16.838;2023-03-23T06:41:58;12.20;66.20
64561;DHT22;50960;46.838;16.838;2023-03-23T06:44:25;12.40;65.80
64561;DHT22;50960;46.838;16.838;2023-03-23T06:46:51;12.40;65.70
64561;DHT22;50960;46.838;16.838;2023-03-23T06:49:18;12.60;64.20
64561;DHT22;50960;46.838;16.838;2023-03-23T06:51:45;12.60;65.10
64561;DHT22;50960;46.838;16.838;2023-03-23T06:54:11;12.70;64.80
64561;DHT22;50960;46.838;16.838;2023-03-23T06:56:37;12.70;64.80
64561;DHT22;50960;46.838;16.838;2023-03-23T06:59:04;12.70;64.30
64561;DHT22;50960;46.838;16.838;2023-03-23T07:01:30;12.80;63.80
64561;DHT22;50960;46.838;16.838;2023-03-23T07:03:57;12.80;63.90
64561;DHT22;50960;46.838;16.838;2023-03-23T07:06:24;12.90;63.90
64561;DHT22;50960;46.838;16.838;2023-03-23T07:08:52;13.00;63.50
64561;DHT22;50960;46.838;16.838;2023-03-23T07:11:19;13.00;63.60
64561;DHT22;50960;46.838;16.838;2023-03-23T07:13:45;13.10;63.10
64561;DHT22;50960;46.838;16.838;2023-03-23T07:16:12;13.20;63.10
64561;DHT22;50960;46.838;16.838;2023-03-23T07:18:39;13.20;62.60
64561;DHT22;50960;46.838;16.838;2023-03-23T07:21:06;13.30;63.00
64561;DHT22;50960;46.838;16.838;2023-03-23T07:23:32;13.40;62.10
64561;DHT22;50960;46.838;16.838;2023-03-23T07:25:58;13.60;61.90
64561;DHT22;50960;46.838;16.838;2023-03-23T07:28:25;13.70;61.60
64561;DHT22;50960;46.838;16.838;2023-03-23T07:30:52;13.80;60.70
64561;DHT22;50960;46.838;16.838;2023-03-23T07:33:18;13.80;60.50
64561;DHT22;50960;46.838;16.838;2023-03-23T07:35:46;13.90;60.10
64561;DHT22;50960;46.838;16.838;2023-03-23T07:38:13;14.10;59.90
64561;DHT22;50960;46.838;16.838;2023-03-23T07:40:41;14.20;59.80
64561;DHT22;50960;46.838;16.838;2023-03-23T07:43:08;14.30;59.50
64561;DHT22;50960;46.838;16.838;2023-03-23T07:45:34;14.40;59.00
64561;DHT22;50960;46.838;16.838;2023-03-23T07:48:00;14.60;58.70
64561;DHT22;50960;46.838;16.838;2023-03-23T07:50:27;14.70;58.70
64561;DHT22;50960;46.838;16.838;2023-03-23T07:52:56;14.90;58.40
64561;DHT22;50960;46.838;16.838;2023-03-23T07:55:24;15.10;57.90
64561;DHT22;50960;46.838;16.838;2023-03-23T07:57:53;15.30;57.40
64561;DHT22;50960;46.838;16.838;2023-03-23T08:00:20;15.40;57.60
64561;DHT22;50960;46.838;16.838;2023-03-23T08:02:51;15.60;56.80
64561;DHT22;50960;46.838;16.838;2023-03-23T08:05:18;15.80;56.30
64561;DHT22;50960;46.838;16.838;2023-03-23T08:07:46;16.00;56.00
64561;DHT22;50960;46.838;16.838;2023-03-23T08:10:14;16.10;55.10
64561;DHT22;50960;46.838;16.838;2023-03-23T08:12:42;16.30;55.40
64561;DHT22;50960;46.838;16.838;2023-03-23T08:15:11;16.50;54.40
64561;DHT22;50960;46.838;16.838;2023-03-23T08:17:41;16.70;54.20
64561;DHT22;50960;46.838;16.838;2023-03-23T08:20:09;16.80;52.10
64561;DHT22;50960;46.838;16.838;2023-03-23T08:22:43;17.00;53.20
64561;DHT22;50960;46.838;16.838;2023-03-23T08:25:13;17.10;52.50
64561;DHT22;50960;46.838;16.838;2023-03-23T08:27:40;17.20;52.30
64561;DHT22;50960;46.838;16.838;2023-03-23T08:30:11;17.20;50.90
64561;DHT22;50960;46.838;16.838;2023-03-23T08:32:44;17.20;49.00
64561;DHT22;50960;46.838;16.838;2023-03-23T08:35:11;17.20;48.90
64561;DHT22;50960;46.838;16.838;2023-03-23T08:37:38;17.20;49.30
64561;DHT22;50960;46.838;16.838;2023-03-23T08:40:05;17.20;49.50
64561;DHT22;50960;46.838;16.838;2023-03-23T08:42:40;17.20;49.50
64561;DHT22;50960;46.838;16.838;2023-03-23T08:45:10;17.40;50.00
64561;DHT22;50960;46.838;16.838;2023-03-23T08:47:37;17.40;49.50
64561;DHT22;50960;46.838;16.838;2023-03-23T08:50:06;17.40;49.60
64561;DHT22;50960;46.838;16.838;2023-03-23T08:52:32;17.40;48.10
64561;DHT22;50960;46.838;16.838;2023-03-23T08:54:59;17.40;48.90
64561;DHT22;50960;46.838;16.838;2023-03-23T08:57:26;17.40;49.00
64561;DHT22;50960;46.838;16.838;2023-03-23T08:59:52;17.50;47.70
64561;DHT22;50960;46.838;16.838;2023-03-23T09:02:26;17.70;48.40
64561;DHT22;50960;46.838;16.838;2023-03-23T09:04:53;17.80;48.20
64561;DHT22;50960;46.838;16.838;2023-03-23T09:07:20;17.80;47.20
64561;DHT22;50960;46.838;16.838;2023-03-23T09:09:46;17.90;48.30
64561;DHT22;50960;46.838;16.838;2023-03-23T09:12:13;18.10;48.00
64561;DHT22;50960;46.838;16.838;2023-03-23T09:14:39;18.20;48.10
64561;DHT22;50960;46.838;16.838;2023-03-23T09:17:06;18.50;47.40
64561;DHT22;50960;46.838;16.838;2023-03-23T09:19:33;18.40;46.50
64561;DHT22;50960;46.838;16.838;2023-03-23T09:22:01;18.50;47.10
64561;DHT22;50960;46.838;16.838;2023-03-23T09:24:27;18.70;47.30
64561;DHT22;50960;46.838;16.838;2023-03-23T09:26:54;18.90;46.90
64561;DHT22;50960;46.838;16.838;2023-03-23T09:29:20;19.00;45.90
64561;DHT22;50960;46.838;16.838;2023-03-23T09:31:48;19.00;46.50
64561;DHT22;50960;46.838;16.838;2023-03-23T09:34:16;19.00;45.70
64561;DHT22;50960;46.838;16.838;2023-03-23T09:36:43;19.10;46.50
64561;DHT22;50960;46.838;16.838;2023-03-23T09:39:11;19.20;45.90
64561;DHT22;50960;46.838;16.838;2023-03-23T09:41:58;19.30;46.00
64561;DHT22;50960;46.838;16.838;2023-03-23T09:50:16;19.60;45.80
64561;DHT22;50960;46.838;16.838;2023-03-23T09:52:56;19.80;43.20
64561;DHT22;50960;46.838;16.838;2023-03-23T09:55:25;19.90;44.40
64561;DHT22;50960;46.838;16.838;2023-03-23T09:58:20;20.10;44.70
64561;DHT22;50960;46.838;16.838;2023-03-23T10:00:57;20.00;43.90
64561;DHT22;50960;46.838;16.838;2023-03-23T10:03:36;20.10;44.40
64561;DHT22;50960;46.838;16.838;2023-03-23T10:06:03;20.20;42.80
64561;DHT22;50960;46.838;16.838;2023-03-23T10:08:32;19.90;43.80
64561;DHT22;50960;46.838;16.838;2023-03-23T10:11:21;20.00;44.20
64561;DHT22;50960;46.838;16.838;2023-03-23T10:17:15;20.10;43.70
64561;DHT22;50960;46.838;16.838;2023-03-23T10:19:50;20.20;43.70
64561;DHT22;50960;46.838;16.838;2023-03-23T10:22:31;20.30;44.30
64561;DHT22;50960;46.838;16.838;2023-03-23T10:25:16;20.20;43.50
64561;DHT22;50960;46.838;16.838;2023-03-23T10:28:05;19.90;43.00
64561;DHT22;50960;46.838;16.838;2023-03-23T10:30:40;19.80;43.80
64561;DHT22;50960;46.838;16.838;2023-03-23T10:33:19;19.90;44.70
64561;DHT22;50960;46.838;16.838;2023-03-23T10:35:57;20.00;44.40
64561;DHT22;50960;46.838;16.838;2023-03-23T10:41:11;20.00;44.70
64561;DHT22;50960;46.838;16.838;2023-03-23T10:43:39;20.30;44.10
64561;DHT22;50960;46.838;16.838;2023-03-23T10:48:44;20.40;43.30
64561;DHT22;50960;46.838;16.838;2023-03-23T10:51:12;20.50;43.50
64561;DHT22;50960;46.838;16.838;2023-03-23T10:53:44;20.80;42.40
64561;DHT22;50960;46.838;16.838;2023-03-23T10:56:29;21.10;41.40
64561;DHT22;50960;46.838;16.838;2023-03-23T10:59:15;21.00;41.00
64561;DHT22;50960;46.838;16.838;2023-03-23T11:01:45;21.20;40.90
64561;DHT22;50960;46.838;16.838;2023-03-23T11:04:16;21.20;41.60
64561;DHT22;50960;46.838;16.838;2023-03-23T11:06:51;21.10;40.80
64561;DHT22;50960;46.838;16.838;2023-03-23T11:09:34;21.30;41.70
64561;DHT22;50960;46.838;16.838;2023-03-23T11:12:01;21.50;41.70
64561;DHT22;50960;46.838;16.838;2023-03-23T11:14:31;22.00;40.90
64561;DHT22;50960;46.838;16.838;2023-03-23T11:17:04;22.20;40.60
64561;DHT22;50960;46.838;16.838;2023-03-23T11:19:36;22.30;40.00
64561;DHT22;50960;46.838;16.838;2023-03-23T11:24:43;21.50;39.20
64561;DHT22;50960;46.838;16.838;2023-03-23T11:27:11;21.20;40.40
64561;DHT22;50960;46.838;16.838;2023-03-23T11:29:52;21.10;40.60
64561;DHT22;50960;46.838;16.838;2023-03-23T11:32:22;21.50;41.50
64561;DHT22;50960;46.838;16.838;2023-03-23T11:34:58;21.60;40.00
64561;DHT22;50960;46.838;16.838;2023-03-23T11:42:46;22.30;40.00
64561;DHT22;50960;46.838;16.838;2023-03-23T11:45:25;22.30;39.80
64561;DHT22;50960;46.838;16.838;2023-03-23T11:51:33;21.60;39.80
64561;DHT22;50960;46.838;16.838;2023-03-23T11:56:34;21.40;42.40
64561;DHT22;50960;46.838;16.838;2023-03-23T11:59:01;21.80;42.20
64561;DHT22;50960;46.838;16.838;2023-03-23T12:07:28;22.90;39.90
64561;DHT22;50960;46.838;16.838;2023-03-23T12:10:24;23.30;36.80
64561;DHT22;50960;46.838;16.838;2023-03-23T12:15:56;23.70;34.30
64561;DHT22;50960;46.838;16.838;2023-03-23T12:18:52;23.90;35.50
64561;DHT22;50960;46.838;16.838;2023-03-23T12:32:31;22.70;38.10
64561;DHT22;50960;46.838;16.838;2023-03-23T12:41:01;24.30;34.30
64561;DHT22;50960;46.838;16.838;2023-03-23T12:43:50;24.30;35.10
64561;DHT22;50960;46.838;16.838;2023-03-23T12:49:45;27.00;32.10
64561;DHT22;50960;46.838;16.838;2023-03-23T12:54:48;25.00;31.50
64561;DHT22;50960;46.838;16.838;2023-03-23T12:57:29;25.40;33.70
64561;DHT22;50960;46.838;16.838;2023-03-23T13:00:20;25.60;33.10
64561;DHT22;50960;46.838;16.838;2023-03-23T13:06:11;24.60;34.60
64561;DHT22;50960;46.838;16.838;2023-03-23T13:08:44;24.10;35.10
64561;DHT22;50960;46.838;16.838;2023-03-23T13:11:24;23.80;35.50
64561;DHT22;50960;46.838;16.838;2023-03-23T13:13:55;23.50;35.20
64561;DHT22;50960;46.838;16.838;2023-03-23T13:19:05;22.70;37.00
64561;DHT22;50960;46.838;16.838;2023-03-23T13:24:24;21.90;38.30
64561;DHT22;50960;46.838;16.838;2023-03-23T13:26:53;21.90;38.80
64561;DHT22;50960;46.838;16.838;2023-03-23T13:29:24;22.30;37.50
64561;DHT22;50960;46.838;16.838;2023-03-23T13:32:06;22.30;38.30
64561;DHT22;50960;46.838;16.838;2023-03-23T13:34:34;22.40;37.70
64561;DHT22;50960;46.838;16.838;2023-03-23T13:37:10;22.50;37.40
64561;DHT22;50960;46.838;16.838;2023-03-23T13:39:58;22.90;37.30
64561;DHT22;50960;46.838;16.838;2023-03-23T13:42:27;23.10;36.70
64561;DHT22;50960;46.838;16.838;2023-03-23T13:47:45;24.90;36.30
64561;DHT22;50960;46.838;16.838;2023-03-23T13:50:43;27.40;33.00
64561;DHT22;50960;46.838;16.838;2023-03-23T13:53:14;28.40;31.10
64561;DHT22;50960;46.838;16.838;2023-03-23T13:55:42;29.30;29.60
64561;DHT22;50960;46.838;16.838;2023-03-23T13:58:23;29.00;29.60
64561;DHT22;50960;46.838;16.838;2023-03-23T14:07:58;27.60;30.10
64561;DHT22;50960;46.838;16.838;2023-03-23T14:10:53;27.20;30.50
64561;DHT22;50960;46.838;16.838;2023-03-23T14:16:13;27.00;30.80
64561;DHT22;50960;46.838;16.838;2023-03-23T14:18:42;25.50;31.50
64561;DHT22;50960;46.838;16.838;2023-03-23T14:21:15;25.70;32.40
64561;DHT22;50960;46.838;16.838;2023-03-23T14:23:42;25.70;32.30
64561;DHT22;50960;46.838;16.838;2023-03-23T14:26:16;25.80;31.80
64561;DHT22;50960;46.838;16.838;2023-03-23T14:28:45;26.60;31.70
64561;DHT22;50960;46.838;16.838;2023-03-23T14:33:49;25.90;32.20
64561;DHT22;50960;46.838;16.838;2023-03-23T14:36:31;25.90;31.70
64561;DHT22;50960;46.838;16.838;2023-03-23T14:39:02;26.30;31.80
64561;DHT22;50960;46.838;16.838;2023-03-23T14:41:30;26.00;32.10
64561;DHT22;50960;46.838;16.838;2023-03-23T14:44:00;24.90;33.30
64561;DHT22;50960;46.838;16.838;2023-03-23T14:46:27;25.10;32.90
64561;DHT22;50960;46.838;16.838;2023-03-23T14:48:53;24.70;33.60
64561;DHT22;50960;46.838;16.838;2023-03-23T14:51:21;24.80;33.00
64561;DHT22;50960;46.838;16.838;2023-03-23T14:53:48;26.30;33.00
64561;DHT22;50960;46.838;16.838;2023-03-23T14:56:19;31.10;29.60
64561;DHT22;50960;46.838;16.838;2023-03-23T14:58:51;33.90;27.40
64561;DHT22;50960;46.838;16.838;2023-03-23T15:01:19;36.30;25.40
64561;DHT22;50960;46.838;16.838;2023-03-23T15:04:17;38.90;24.40
64561;DHT22;50960;46.838;16.838;2023-03-23T15:06:55;38.10;23.00
64561;DHT22;50960;46.838;16.838;2023-03-23T15:09:23;37.10;23.70
64561;DHT22;50960;46.838;16.838;2023-03-23T15:11:58;34.60;24.90
64561;DHT22;50960;46.838;16.838;2023-03-23T15:14:49;33.00;25.80
64561;DHT22;50960;46.838;16.838;2023-03-23T15:17:27;32.20;25.90
64561;DHT22;50960;46.838;16.838;2023-03-23T15:19:55;31.60;26.10
64561;DHT22;50960;46.838;16.838;2023-03-23T15:22:28;32.00;26.60
64561;DHT22;50960;46.838;16.838;2023-03-23T15:25:32;32.10;25.50
64561;DHT22;50960;46.838;16.838;2023-03-23T15:28:16;32.80;24.00
64561;DHT22;50960;46.838;16.838;2023-03-23T15:30:51;35.50;24.60
64561;DHT22;50960;46.838;16.838;2023-03-23T15:33:19;37.80;22.60
64561;DHT22;50960;46.838;16.838;2023-03-23T15:35:56;37.90;22.30
64561;DHT22;50960;46.838;16.838;2023-03-23T15:38:30;37.00;22.70
64561;DHT22;50960;46.838;16.838;2023-03-23T15:41:00;37.50;23.00
64561;DHT22;50960;46.838;16.838;2023-03-23T15:43:34;39.20;22.00
64561;DHT22;50960;46.838;16.838;2023-03-23T15:51:16;39.30;19.50
64561;DHT22;50960;46.838;16.838;2023-03-23T15:53:42;41.40;20.50
64561;DHT22;50960;46.838;16.838;2023-03-23T15:56:13;39.80;19.20
64561;DHT22;50960;46.838;16.838;2023-03-23T15:58:40;40.20;20.00
64561;DHT22;50960;46.838;16.838;2023-03-23T16:01:18;38.30;19.30
64561;DHT22;50960;46.838;16.838;2023-03-23T16:03:51;39.40;20.70
64561;DHT22;50960;46.838;16.838;2023-03-23T16:06:22;38.90;20.30
64561;DHT22;50960;46.838;16.838;2023-03-23T16:08:48;37.40;20.00
64561;DHT22;50960;46.838;16.838;2023-03-23T16:11:17;35.50;20.80
64561;DHT22;50960;46.838;16.838;2023-03-23T16:13:44;34.10;21.80
64561;DHT22;50960;46.838;16.838;2023-03-23T16:16:21;33.00;23.20
64561;DHT22;50960;46.838;16.838;2023-03-23T16:18:48;32.30;23.50
64561;DHT22;50960;46.838;16.838;2023-03-23T16:21:16;31.50;24.40
64561;DHT22;50960;46.838;16.838;2023-03-23T16:23:42;31.50;25.00
64561;DHT22;50960;46.838;16.838;2023-03-23T16:26:12;31.80;24.90
64561;DHT22;50960;46.838;16.838;2023-03-23T16:28:40;30.30;25.60
64561;DHT22;50960;46.838;16.838;2023-03-23T16:33:33;28.10;27.40
64561;DHT22;50960;46.838;16.838;2023-03-23T16:35:59;27.10;28.00
64561;DHT22;50960;46.838;16.838;2023-03-23T16:38:27;26.40;29.00
64561;DHT22;50960;46.838;16.838;2023-03-23T16:40:54;26.10;29.60
64561;DHT22;50960;46.838;16.838;2023-03-23T16:43:20;25.70;30.10
64561;DHT22;50960;46.838;16.838;2023-03-23T16:45:47;25.40;30.70
64561;DHT22;50960;46.838;16.838;2023-03-23T16:48:15;25.10;30.80
64561;DHT22;50960;46.838;16.838;2023-03-23T16:50:42;24.50;31.50
64561;DHT22;50960;46.838;16.838;2023-03-23T16:53:11;24.20;32.30
64561;DHT22;50960;46.838;16.838;2023-03-23T16:55:38;23.90;32.70
64561;DHT22;50960;46.838;16.838;2023-03-23T16:58:05;23.50;33.20
64561;DHT22;50960;46.838;16.838;2023-03-23T17:00:32;23.20;34.30
64561;DHT22;50960;46.838;16.838;2023-03-23T17:02:58;22.90;34.80
64561;DHT22;50960;46.838;16.838;2023-03-23T17:05:27;22.60;35.20
64561;DHT22;50960;46.838;16.838;2023-03-23T17:07:54;22.30;35.70
64561;DHT22;50960;46.838;16.838;2023-03-23T17:10:24;22.00;36.30
64561;DHT22;50960;46.838;16.838;2023-03-23T17:12:53;21.70;36.90
64561;DHT22;50960;46.838;16.838;2023-03-23T17:15:20;21.40;37.30
64561;DHT22;50960;46.838;16.838;2023-03-23T17:17:46;21.30;38.30
64561;DHT22;50960;46.838;16.838;2023-03-23T17:20:13;20.70;39.80
64561;DHT22;50960;46.838;16.838;2023-03-23T17:22:39;20.50;40.90
64561;DHT22;50960;46.838;16.838;2023-03-23T17:25:07;20.30;41.30
64561;DHT22;50960;46.838;16.838;2023-03-23T17:27:35;20.10;42.40
64561;DHT22;50960;46.838;16.838;2023-03-23T17:30:03;20.00;41.70
64561;DHT22;50960;46.838;16.838;2023-03-23T17:32:30;19.90;42.50
64561;DHT22;50960;46.838;16.838;2023-03-23T17:34:56;19.80;42.90
64561;DHT22;50960;46.838;16.838;2023-03-23T17:37:22;19.60;44.30